sensor_id;sensor_type;location;lat;lon;timestamp;temperature;humidity
59857;DHT22;45733;52.668;6.860;2022-09-09T00:04:28;14.80;99.90
59857;DHT22;45733;52.668;6.860;2022-09-09T00:09:22;14.90;99.90
59857;DHT22;45733;52.668;6.860;2022-09-09T00:18:15;14.80;99.90
59857;DHT22;45733;52.668;6.860;2022-09-09T00:21:07;14.80;99.90
59857;DHT22;45733;52.668;6.860;2022-09-09T00:23:38;14.70;99.90
59857;DHT22;45733;52.668;6.860;2022-09-09T00:31:34;14.50;99.90
59857;DHT22;45733;52.668;6.860;2022-09-09T00:34:12;14.60;99.90
59857;DHT22;45733;52.668;6.860;2022-09-09T00:36:40;14.70;99.90
59857;DHT22;45733;52.668;6.860;2022-09-09T00:39:13;14.80;99.90
59857;DHT22;45733;52.668;6.860;2022-09-09T00:44:30;14.80;99.90
59857;DHT22;45733;52.668;6.860;2022-09-09T00:52:46;14.80;99.90
59857;DHT22;45733;52.668;6.860;2022-09-09T00:55:21;14.90;99.90
59857;DHT22;45733;52.668;6.860;2022-09-09T00:57:57;15.00;99.90
59857;DHT22;45733;52.668;6.860;2022-09-09T01:00:36;14.90;99.90
59857;DHT22;45733;52.668;6.860;2022-09-09T01:05:51;14.90;99.90
59857;DHT22;45733;52.668;6.860;2022-09-09T01:17:24;15.00;99.90
59857;DHT22;45733;52.668;6.860;2022-09-09T01:27:50;15.00;99.90
59857;DHT22;45733;52.668;6.860;2022-09-09T01:30:18;15.00;99.90
59857;DHT22;45733;52.668;6.860;2022-09-09T01:32:47;15.00;99.90
59857;DHT22;45733;52.668;6.860;2022-09-09T01:37:52;15.00;99.90
59857;DHT22;45733;52.668;6.860;2022-09-09T01:40:18;14.90;99.90
59857;DHT22;45733;52.668;6.860;2022-09-09T01:42:43;14.90;99.90
59857;DHT22;45733;52.668;6.860;2022-09-09T01:45:10;14.80;99.90
59857;DHT22;45733;52.668;6.860;2022-09-09T01:47:35;14.80;99.90
59857;DHT22;45733;52.668;6.860;2022-09-09T01:50:02;14.80;99.90
59857;DHT22;45733;52.668;6.860;2022-09-09T01:52:29;14.80;99.90
59857;DHT22;45733;52.668;6.860;2022-09-09T01:54:57;14.90;99.90
59857;DHT22;45733;52.668;6.860;2022-09-09T01:57:27;14.80;99.90
59857;DHT22;45733;52.668;6.860;2022-09-09T02:05:48;14.70;99.90
59857;DHT22;45733;52.668;6.860;2022-09-09T02:08:21;14.70;99.90
59857;DHT22;45733;52.668;6.860;2022-09-09T02:10:58;14.70;99.90
59857;DHT22;45733;52.668;6.860;2022-09-09T02:13:26;14.70;99.90
59857;DHT22;45733;52.668;6.860;2022-09-09T02:16:13;14.70;99.90
59857;DHT22;45733;52.668;6.860;2022-09-09T02:19:02;14.80;99.90
59857;DHT22;45733;52.668;6.860;2022-09-09T02:21:32;14.80;99.90
59857;DHT22;45733;52.668;6.860;2022-09-09T02:24:04;14.80;99.90
59857;DHT22;45733;52.668;6.860;2022-09-09T02:26:32;14.80;99.90
59857;DHT22;45733;52.668;6.860;2022-09-09T02:29:02;14.80;99.90
59857;DHT22;45733;52.668;6.860;2022-09-09T02:31:28;14.80;99.90
59857;DHT22;45733;52.668;6.860;2022-09-09T02:34:00;14.80;99.90
59857;DHT22;45733;52.668;6.860;2022-09-09T02:36:30;14.90;99.90
59857;DHT22;45733;52.668;6.860;2022-09-09T02:38:58;14.80;99.90
59857;DHT22;45733;52.668;6.860;2022-09-09T02:41:37;14.80;99.90
59857;DHT22;45733;52.668;6.860;2022-09-09T02:44:15;14.80;99.90
59857;DHT22;45733;52.668;6.860;2022-09-09T02:50:01;14.80;99.90
59857;DHT22;45733;52.668;6.860;2022-09-09T02:55:39;14.80;99.90
59857;DHT22;45733;52.668;6.860;2022-09-09T02:58:09;14.80;99.90
59857;DHT22;45733;52.668;6.860;2022-09-09T03:00:37;14.90;99.90
59857;DHT22;45733;52.668;6.860;2022-09-09T03:03:05;14.90;99.90
59857;DHT22;45733;52.668;6.860;2022-09-09T03:05:31;14.70;99.90
59857;DHT22;45733;52.668;6.860;2022-09-09T03:07:58;14.70;99.90
59857;DHT22;45733;52.668;6.860;2022-09-09T03:10:23;14.70;99.90
59857;DHT22;45733;52.668;6.860;2022-09-09T03:12:49;14.70;99.90
59857;DHT22;45733;52.668;6.860;2022-09-09T03:15:16;14.70;99.90
59857;DHT22;45733;52.668;6.860;2022-09-09T03:17:42;14.70;99.90
59857;DHT22;45733;52.668;6.860;2022-09-09T03:20:08;14.70;99.90
59857;DHT22;45733;52.668;6.860;2022-09-09T03:22:34;14.70;99.90
59857;DHT22;45733;52.668;6.860;2022-09-09T03:25:00;14.70;99.90
59857;DHT22;45733;52.668;6.860;2022-09-09T03:27:28;14.70;99.90
59857;DHT22;45733;52.668;6.860;2022-09-09T03:29:54;14.70;99.90
59857;DHT22;45733;52.668;6.860;2022-09-09T03:32:22;14.70;99.90
59857;DHT22;45733;52.668;6.860;2022-09-09T03:34:48;14.80;99.90
59857;DHT22;45733;52.668;6.860;2022-09-09T03:37:16;14.70;99.90
59857;DHT22;45733;52.668;6.860;2022-09-09T03:39:43;14.70;99.90
59857;DHT22;45733;52.668;6.860;2022-09-09T03:42:09;14.80;99.90
59857;DHT22;45733;52.668;6.860;2022-09-09T03:44:35;14.80;99.90
59857;DHT22;45733;52.668;6.860;2022-09-09T03:47:01;14.70;99.90
59857;DHT22;45733;52.668;6.860;2022-09-09T03:49:27;14.70;99.90
59857;DHT22;45733;52.668;6.860;2022-09-09T03:51:55;14.80;99.90
59857;DHT22;45733;52.668;6.860;2022-09-09T03:54:23;14.70;99.90
59857;DHT22;45733;52.668;6.860;2022-09-09T03:56:49;14.80;99.90
59857;DHT22;45733;52.668;6.860;2022-09-09T03:59:15;14.70;99.90
59857;DHT22;45733;52.668;6.860;2022-09-09T04:01:41;14.80;99.90
59857;DHT22;45733;52.668;6.860;2022-09-09T04:04:07;14.70;99.90
59857;DHT22;45733;52.668;6.860;2022-09-09T04:06:34;14.80;99.90
59857;DHT22;45733;52.668;6.860;2022-09-09T04:09:00;14.70;99.90
59857;DHT22;45733;52.668;6.860;2022-09-09T04:11:29;14.70;99.90
59857;DHT22;45733;52.668;6.860;2022-09-09T04:13:55;14.70;99.90
59857;DHT22;45733;52.668;6.860;2022-09-09T04:16:23;14.70;99.90
59857;DHT22;45733;52.668;6.860;2022-09-09T04:18:57;14.70;99.90
59857;DHT22;45733;52.668;6.860;2022-09-09T04:21:23;14.70;99.90
59857;DHT22;45733;52.668;6.860;2022-09-09T04:23:49;14.70;99.90
59857;DHT22;45733;52.668;6.860;2022-09-09T04:26:24;14.70;99.90
59857;DHT22;45733;52.668;6.860;2022-09-09T04:28:50;14.70;99.90
59857;DHT22;45733;52.668;6.860;2022-09-09T04:31:21;14.70;99.90
59857;DHT22;45733;52.668;6.860;2022-09-09T04:33:54;14.60;99.90
59857;DHT22;45733;52.668;6.860;2022-09-09T04:36:23;14.60;99.90
59857;DHT22;45733;52.668;6.860;2022-09-09T04:38:49;14.60;99.90
59857;DHT22;45733;52.668;6.860;2022-09-09T04:41:15;14.50;99.90
59857;DHT22;45733;52.668;6.860;2022-09-09T04:43:42;14.50;99.90
59857;DHT22;45733;52.668;6.860;2022-09-09T04:46:08;14.50;99.90
59857;DHT22;45733;52.668;6.860;2022-09-09T04:48:34;14.60;99.90
59857;DHT22;45733;52.668;6.860;2022-09-09T04:51:09;14.60;99.90
59857;DHT22;45733;52.668;6.860;2022-09-09T04:53:36;14.60;99.90
59857;DHT22;45733;52.668;6.860;2022-09-09T04:56:07;14.50;99.90
59857;DHT22;45733;52.668;6.860;2022-09-09T04:58:36;14.50;99.90
59857;DHT22;45733;52.668;6.860;2022-09-09T05:01:23;14.40;99.90
59857;DHT22;45733;52.668;6.860;2022-09-09T05:03:50;14.40;99.90
59857;DHT22;45733;52.668;6.860;2022-09-09T05:06:19;14.40;99.90
59857;DHT22;45733;52.668;6.860;2022-09-09T05:08:45;14.30;99.90
59857;DHT22;45733;52.668;6.860;2022-09-09T05:11:16;14.30;99.90
59857;DHT22;45733;52.668;6.860;2022-09-09T05:13:42;14.30;99.90
59857;DHT22;45733;52.668;6.860;2022-09-09T05:16:08;14.10;99.90
59857;DHT22;45733;52.668;6.860;2022-09-09T05:18:39;14.10;99.90
59857;DHT22;45733;52.668;6.860;2022-09-09T05:21:06;14.10;99.90
59857;DHT22;45733;52.668;6.860;2022-09-09T05:23:33;14.00;99.90
59857;DHT22;45733;52.668;6.860;2022-09-09T05:25:59;13.90;99.90
59857;DHT22;45733;52.668;6.860;2022-09-09T05:28:26;14.00;99.90
59857;DHT22;45733;52.668;6.860;2022-09-09T05:30:59;14.10;99.90
59857;DHT22;45733;52.668;6.860;2022-09-09T05:33:26;15.00;99.90
59857;DHT22;45733;52.668;6.860;2022-09-09T05:36:06;15.50;99.90
59857;DHT22;45733;52.668;6.860;2022-09-09T05:38:33;15.80;99.90
59857;DHT22;45733;52.668;6.860;2022-09-09T05:41:00;16.40;99.90
59857;DHT22;45733;52.668;6.860;2022-09-09T05:43:28;17.10;99.90
59857;DHT22;45733;52.668;6.860;2022-09-09T05:46:08;17.70;99.90
59857;DHT22;45733;52.668;6.860;2022-09-09T05:48:39;17.90;99.90
59857;DHT22;45733;52.668;6.860;2022-09-09T05:51:11;17.00;99.90
59857;DHT22;45733;52.668;6.860;2022-09-09T05:53:44;16.60;99.90
59857;DHT22;45733;52.668;6.860;2022-09-09T05:56:21;16.50;99.90
59857;DHT22;45733;52.668;6.860;2022-09-09T05:58:48;16.20;99.90
59857;DHT22;45733;52.668;6.860;2022-09-09T06:01:16;15.90;99.90
59857;DHT22;45733;52.668;6.860;2022-09-09T06:03:43;15.90;99.90
59857;DHT22;45733;52.668;6.860;2022-09-09T06:06:11;15.70;99.90
59857;DHT22;45733;52.668;6.860;2022-09-09T06:08:39;15.60;99.90
59857;DHT22;45733;52.668;6.860;2022-09-09T06:11:08;15.70;99.90
59857;DHT22;45733;52.668;6.860;2022-09-09T06:13:34;15.70;99.90
59857;DHT22;45733;52.668;6.860;2022-09-09T06:16:01;15.70;99.90
59857;DHT22;45733;52.668;6.860;2022-09-09T06:18:27;15.70;99.90
59857;DHT22;45733;52.668;6.860;2022-09-09T06:20:57;15.70;99.90
59857;DHT22;45733;52.668;6.860;2022-09-09T06:23:24;15.70;99.90
59857;DHT22;45733;52.668;6.860;2022-09-09T06:25:50;15.60;99.90
59857;DHT22;45733;52.668;6.860;2022-09-09T06:28:24;15.70;99.90
59857;DHT22;45733;52.668;6.860;2022-09-09T06:31:00;15.60;99.90
59857;DHT22;45733;52.668;6.860;2022-09-09T06:33:26;15.70;99.90
59857;DHT22;45733;52.668;6.860;2022-09-09T06:35:55;15.70;99.90
59857;DHT22;45733;52.668;6.860;2022-09-09T06:38:22;15.60;99.90
59857;DHT22;45733;52.668;6.860;2022-09-09T06:40:56;15.70;99.90
59857;DHT22;45733;52.668;6.860;2022-09-09T06:43:24;15.60;99.90
59857;DHT22;45733;52.668;6.860;2022-09-09T06:46:08;15.70;99.90
59857;DHT22;45733;52.668;6.860;2022-09-09T06:48:35;15.70;99.90
59857;DHT22;45733;52.668;6.860;2022-09-09T06:51:05;15.70;99.90
59857;DHT22;45733;52.668;6.860;2022-09-09T06:53:35;15.70;99.90
59857;DHT22;45733;52.668;6.860;2022-09-09T06:58:52;15.60;99.90
59857;DHT22;45733;52.668;6.860;2022-09-09T07:01:23;15.70;99.90
59857;DHT22;45733;52.668;6.860;2022-09-09T07:03:51;15.70;99.90
59857;DHT22;45733;52.668;6.860;2022-09-09T07:06:21;15.80;99.90
59857;DHT22;45733;52.668;6.860;2022-09-09T07:08:54;15.90;99.90
59857;DHT22;45733;52.668;6.860;2022-09-09T07:11:22;16.00;99.90
59857;DHT22;45733;52.668;6.860;2022-09-09T07:13:48;16.10;99.90
59857;DHT22;45733;52.668;6.860;2022-09-09T07:16:18;16.40;99.90
59857;DHT22;45733;52.668;6.860;2022-09-09T07:18:44;16.70;99.90
59857;DHT22;45733;52.668;6.860;2022-09-09T07:21:12;16.70;99.90
59857;DHT22;45733;52.668;6.860;2022-09-09T07:23:39;16.80;99.90
59857;DHT22;45733;52.668;6.860;2022-09-09T07:26:13;16.70;99.90
59857;DHT22;45733;52.668;6.860;2022-09-09T07:28:40;16.70;99.90
59857;DHT22;45733;52.668;6.860;2022-09-09T07:31:07;17.10;99.90
59857;DHT22;45733;52.668;6.860;2022-09-09T07:33:39;17.20;99.90
59857;DHT22;45733;52.668;6.860;2022-09-09T07:36:09;17.40;99.90
59857;DHT22;45733;52.668;6.860;2022-09-09T07:38:40;17.30;99.90
59857;DHT22;45733;52.668;6.860;2022-09-09T07:41:08;17.60;99.90
59857;DHT22;45733;52.668;6.860;2022-09-09T07:43:45;17.90;99.90
59857;DHT22;45733;52.668;6.860;2022-09-09T07:46:12;18.10;99.90
59857;DHT22;45733;52.668;6.860;2022-09-09T07:48:44;18.00;99.90
59857;DHT22;45733;52.668;6.860;2022-09-09T07:51:15;17.90;99.90
59857;DHT22;45733;52.668;6.860;2022-09-09T07:53:46;18.00;99.90
59857;DHT22;45733;52.668;6.860;2022-09-09T07:56:17;18.10;99.90
59857;DHT22;45733;52.668;6.860;2022-09-09T07:58:45;18.10;99.90
59857;DHT22;45733;52.668;6.860;2022-09-09T08:01:16;18.10;99.90
59857;DHT22;45733;52.668;6.860;2022-09-09T08:03:46;17.80;99.90
59857;DHT22;45733;52.668;6.860;2022-09-09T08:06:12;17.90;99.90
59857;DHT22;45733;52.668;6.860;2022-09-09T08:08:39;18.10;99.90
59857;DHT22;45733;52.668;6.860;2022-09-09T08:11:15;18.10;99.90
59857;DHT22;45733;52.668;6.860;2022-09-09T08:13:41;18.00;99.90
59857;DHT22;45733;52.668;6.860;2022-09-09T08:16:10;18.00;99.90
59857;DHT22;45733;52.668;6.860;2022-09-09T08:18:37;18.00;99.90
59857;DHT22;45733;52.668;6.860;2022-09-09T08:21:12;18.00;99.90
59857;DHT22;45733;52.668;6.860;2022-09-09T08:23:41;18.10;99.90
59857;DHT22;45733;52.668;6.860;2022-09-09T08:26:16;18.20;99.90
59857;DHT22;45733;52.668;6.860;2022-09-09T08:28:43;18.20;99.90
59857;DHT22;45733;52.668;6.860;2022-09-09T08:31:15;18.10;99.90
59857;DHT22;45733;52.668;6.860;2022-09-09T08:33:43;18.10;99.90
59857;DHT22;45733;52.668;6.860;2022-09-09T08:36:12;18.20;99.90
59857;DHT22;45733;52.668;6.860;2022-09-09T08:38:38;18.10;99.90
59857;DHT22;45733;52.668;6.860;2022-09-09T08:43:46;18.20;99.90
59857;DHT22;45733;52.668;6.860;2022-09-09T08:46:37;18.10;99.90
59857;DHT22;45733;52.668;6.860;2022-09-09T08:51:36;18.30;99.90
59857;DHT22;45733;52.668;6.860;2022-09-09T08:54:03;18.30;99.90
59857;DHT22;45733;52.668;6.860;2022-09-09T08:56:31;18.30;99.90
59857;DHT22;45733;52.668;6.860;2022-09-09T08:59:00;18.50;99.90
59857;DHT22;45733;52.668;6.860;2022-09-09T09:12:00;19.10;99.90
59857;DHT22;45733;52.668;6.860;2022-09-09T09:14:29;19.30;99.90
59857;DHT22;45733;52.668;6.860;2022-09-09T09:17:02;19.30;99.90
59857;DHT22;45733;52.668;6.860;2022-09-09T09:19:30;19.30;99.90
59857;DHT22;45733;52.668;6.860;2022-09-09T09:30:19;19.50;99.90
59857;DHT22;45733;52.668;6.860;2022-09-09T09:33:13;19.50;99.90
59857;DHT22;45733;52.668;6.860;2022-09-09T09:35:40;19.70;99.90
59857;DHT22;45733;52.668;6.860;2022-09-09T09:38:17;19.70;99.90
59857;DHT22;45733;52.668;6.860;2022-09-09T09:40:51;19.90;99.90
59857;DHT22;45733;52.668;6.860;2022-09-09T09:43:36;20.00;99.90
59857;DHT22;45733;52.668;6.860;2022-09-09T09:46:05;19.70;99.90
59857;DHT22;45733;52.668;6.860;2022-09-09T09:48:43;19.70;99.90
59857;DHT22;45733;52.668;6.860;2022-09-09T09:51:13;19.60;99.90
59857;DHT22;45733;52.668;6.860;2022-09-09T09:53:41;19.80;99.90
59857;DHT22;45733;52.668;6.860;2022-09-09T09:56:09;19.70;99.90
59857;DHT22;45733;52.668;6.860;2022-09-09T10:04:02;20.60;99.90
59857;DHT22;45733;52.668;6.860;2022-09-09T10:06:36;20.70;99.90
59857;DHT22;45733;52.668;6.860;2022-09-09T10:09:27;20.50;99.90
59857;DHT22;45733;52.668;6.860;2022-09-09T10:12:18;20.60;99.90
59857;DHT22;45733;52.668;6.860;2022-09-09T10:22:44;20.60;99.90
59857;DHT22;45733;52.668;6.860;2022-09-09T10:33:28;21.10;99.90
59857;DHT22;45733;52.668;6.860;2022-09-09T10:36:03;21.50;99.90
59857;DHT22;45733;52.668;6.860;2022-09-09T10:38:45;21.80;99.90
59857;DHT22;45733;52.668;6.860;2022-09-09T10:41:43;21.90;99.90
59857;DHT22;45733;52.668;6.860;2022-09-09T10:49:50;21.40;99.90
59857;DHT22;45733;52.668;6.860;2022-09-09T10:55:22;20.80;99.90
59857;DHT22;45733;52.668;6.860;2022-09-09T10:57:52;20.70;99.90
59857;DHT22;45733;52.668;6.860;2022-09-09T11:00:40;20.50;99.90
59857;DHT22;45733;52.668;6.860;2022-09-09T11:03:22;20.90;99.90
59857;DHT22;45733;52.668;6.860;2022-09-09T11:05:53;21.90;99.90
59857;DHT22;45733;52.668;6.860;2022-09-09T11:08:25;22.50;99.90
59857;DHT22;45733;52.668;6.860;2022-09-09T11:11:15;22.10;99.90
59857;DHT22;45733;52.668;6.860;2022-09-09T11:16:30;22.20;99.90
59857;DHT22;45733;52.668;6.860;2022-09-09T11:19:08;21.80;99.90
59857;DHT22;45733;52.668;6.860;2022-09-09T11:21:40;22.00;99.90
59857;DHT22;45733;52.668;6.860;2022-09-09T11:26:52;22.10;99.90
59857;DHT22;45733;52.668;6.860;2022-09-09T11:32:34;21.70;99.90
59857;DHT22;45733;52.668;6.860;2022-09-09T11:35:28;22.00;99.90
59857;DHT22;45733;52.668;6.860;2022-09-09T11:40:33;21.80;99.90
59857;DHT22;45733;52.668;6.860;2022-09-09T11:43:14;21.80;99.90
59857;DHT22;45733;52.668;6.860;2022-09-09T11:45:42;21.70;99.90
59857;DHT22;45733;52.668;6.860;2022-09-09T11:48:36;21.40;99.90
59857;DHT22;45733;52.668;6.860;2022-09-09T11:51:13;21.40;99.90
59857;DHT22;45733;52.668;6.860;2022-09-09T11:53:56;21.40;99.90
59857;DHT22;45733;52.668;6.860;2022-09-09T11:56:34;21.40;99.90
59857;DHT22;45733;52.668;6.860;2022-09-09T11:59:16;21.60;99.90
59857;DHT22;45733;52.668;6.860;2022-09-09T12:01:48;22.00;99.90
59857;DHT22;45733;52.668;6.860;2022-09-09T12:07:24;21.90;99.90
59857;DHT22;45733;52.668;6.860;2022-09-09T12:12:33;21.60;99.90
59857;DHT22;45733;52.668;6.860;2022-09-09T12:17:44;21.10;99.90
59857;DHT22;45733;52.668;6.860;2022-09-09T12:29:02;20.60;99.90
59857;DHT22;45733;52.668;6.860;2022-09-09T12:31:39;20.50;99.90
59857;DHT22;45733;52.668;6.860;2022-09-09T12:34:18;20.60;99.90
59857;DHT22;45733;52.668;6.860;2022-09-09T12:36:53;20.80;99.90
59857;DHT22;45733;52.668;6.860;2022-09-09T12:39:41;21.30;99.90
59857;DHT22;45733;52.668;6.860;2022-09-09T12:42:19;21.40;99.90
59857;DHT22;45733;52.668;6.860;2022-09-09T12:44:57;20.90;99.90
59857;DHT22;45733;52.668;6.860;2022-09-09T12:47:49;20.90;99.90
59857;DHT22;45733;52.668;6.860;2022-09-09T12:50:25;20.90;99.90
59857;DHT22;45733;52.668;6.860;2022-09-09T12:52:57;20.70;99.90
59857;DHT22;45733;52.668;6.860;2022-09-09T12:55:28;20.50;99.90
59857;DHT22;45733;52.668;6.860;2022-09-09T12:57:56;20.30;99.90
59857;DHT22;45733;52.668;6.860;2022-09-09T13:00:24;20.10;99.90
59857;DHT22;45733;52.668;6.860;2022-09-09T13:02:52;19.70;99.90
59857;DHT22;45733;52.668;6.860;2022-09-09T13:05:21;19.30;99.90
59857;DHT22;45733;52.668;6.860;2022-09-09T13:07:47;19.10;99.90
59857;DHT22;45733;52.668;6.860;2022-09-09T13:10:15;19.20;99.90
59857;DHT22;45733;52.668;6.860;2022-09-09T13:12:45;19.30;99.90
59857;DHT22;45733;52.668;6.860;2022-09-09T13:15:20;19.50;99.90
59857;DHT22;45733;52.668;6.860;2022-09-09T13:18:10;19.70;99.90
59857;DHT22;45733;52.668;6.860;2022-09-09T13:20:37;20.10;99.90
59857;DHT22;45733;52.668;6.860;2022-09-09T13:23:03;20.30;99.90
59857;DHT22;45733;52.668;6.860;2022-09-09T13:25:29;20.70;99.90
59857;DHT22;45733;52.668;6.860;2022-09-09T13:28:03;21.50;99.90
59857;DHT22;45733;52.668;6.860;2022-09-09T13:30:30;21.70;99.90
59857;DHT22;45733;52.668;6.860;2022-09-09T13:35:48;21.60;99.90
59857;DHT22;45733;52.668;6.860;2022-09-09T13:38:15;21.30;99.90
59857;DHT22;45733;52.668;6.860;2022-09-09T13:40:53;20.90;99.90
59857;DHT22;45733;52.668;6.860;2022-09-09T13:43:22;20.70;99.90
59857;DHT22;45733;52.668;6.860;2022-09-09T13:45:56;20.70;99.90
59857;DHT22;45733;52.668;6.860;2022-09-09T13:48:23;20.70;99.90
59857;DHT22;45733;52.668;6.860;2022-09-09T13:51:03;20.60;99.90
59857;DHT22;45733;52.668;6.860;2022-09-09T13:53:32;20.50;99.90
59857;DHT22;45733;52.668;6.860;2022-09-09T13:55:59;20.20;99.90
59857;DHT22;45733;52.668;6.860;2022-09-09T13:58:25;19.40;99.90
59857;DHT22;45733;52.668;6.860;2022-09-09T14:00:52;19.00;99.90
59857;DHT22;45733;52.668;6.860;2022-09-09T14:03:19;18.80;99.90
59857;DHT22;45733;52.668;6.860;2022-09-09T14:05:45;18.40;99.90
59857;DHT22;45733;52.668;6.860;2022-09-09T14:08:24;18.30;99.90
59857;DHT22;45733;52.668;6.860;2022-09-09T14:10:50;18.10;99.90
59857;DHT22;45733;52.668;6.860;2022-09-09T14:13:17;18.00;99.90
59857;DHT22;45733;52.668;6.860;2022-09-09T14:15:43;18.20;99.90
59857;DHT22;45733;52.668;6.860;2022-09-09T14:18:12;18.30;99.90
59857;DHT22;45733;52.668;6.860;2022-09-09T14:20:39;18.50;99.90
59857;DHT22;45733;52.668;6.860;2022-09-09T14:23:04;18.70;99.90
59857;DHT22;45733;52.668;6.860;2022-09-09T14:25:30;18.70;99.90
59857;DHT22;45733;52.668;6.860;2022-09-09T14:27:57;18.80;99.90
59857;DHT22;45733;52.668;6.860;2022-09-09T14:30:22;19.00;99.90
59857;DHT22;45733;52.668;6.860;2022-09-09T14:32:48;19.20;99.90
59857;DHT22;45733;52.668;6.860;2022-09-09T14:35:14;19.30;99.90
59857;DHT22;45733;52.668;6.860;2022-09-09T14:37:39;19.20;99.90
59857;DHT22;45733;52.668;6.860;2022-09-09T14:40:06;19.20;99.90
59857;DHT22;45733;52.668;6.860;2022-09-09T14:42:32;19.10;99.90
59857;DHT22;45733;52.668;6.860;2022-09-09T14:44:58;19.00;99.90
59857;DHT22;45733;52.668;6.860;2022-09-09T14:47:24;18.90;99.90
59857;DHT22;45733;52.668;6.860;2022-09-09T14:49:50;19.40;99.90
59857;DHT22;45733;52.668;6.860;2022-09-09T14:52:15;19.80;99.90
59857;DHT22;45733;52.668;6.860;2022-09-09T14:54:41;19.90;99.90
59857;DHT22;45733;52.668;6.860;2022-09-09T14:57:07;19.90;99.90
59857;DHT22;45733;52.668;6.860;2022-09-09T14:59:33;19.80;99.90
59857;DHT22;45733;52.668;6.860;2022-09-09T15:01:59;19.90;99.90
59857;DHT22;45733;52.668;6.860;2022-09-09T15:04:29;19.90;99.90
59857;DHT22;45733;52.668;6.860;2022-09-09T15:06:55;19.70;99.90
59857;DHT22;45733;52.668;6.860;2022-09-09T15:09:20;19.60;99.90
59857;DHT22;45733;52.668;6.860;2022-09-09T15:11:46;19.40;99.90
59857;DHT22;45733;52.668;6.860;2022-09-09T15:14:12;19.30;99.90
59857;DHT22;45733;52.668;6.860;2022-09-09T15:16:39;19.30;99.90
59857;DHT22;45733;52.668;6.860;2022-09-09T15:19:05;19.30;99.90
59857;DHT22;45733;52.668;6.860;2022-09-09T15:21:34;19.40;99.90
59857;DHT22;45733;52.668;6.860;2022-09-09T15:24:00;19.20;99.90
59857;DHT22;45733;52.668;6.860;2022-09-09T15:26:26;19.20;99.90
59857;DHT22;45733;52.668;6.860;2022-09-09T15:28:53;19.30;99.90
59857;DHT22;45733;52.668;6.860;2022-09-09T15:31:25;19.40;99.90
59857;DHT22;45733;52.668;6.860;2022-09-09T15:33:53;19.50;99.90
59857;DHT22;45733;52.668;6.860;2022-09-09T15:36:23;19.40;99.90
59857;DHT22;45733;52.668;6.860;2022-09-09T15:38:50;19.50;99.90
59857;DHT22;45733;52.668;6.860;2022-09-09T15:41:17;19.40;99.90
59857;DHT22;45733;52.668;6.860;2022-09-09T15:43:45;19.30;99.90
59857;DHT22;45733;52.668;6.860;2022-09-09T15:48:46;19.30;99.90
59857;DHT22;45733;52.668;6.860;2022-09-09T15:51:13;19.20;99.90
59857;DHT22;45733;52.668;6.860;2022-09-09T15:53:39;19.20;99.90
59857;DHT22;45733;52.668;6.860;2022-09-09T15:56:06;19.10;99.90
59857;DHT22;45733;52.668;6.860;2022-09-09T15:58:35;19.20;99.90
59857;DHT22;45733;52.668;6.860;2022-09-09T16:01:05;19.00;99.90
59857;DHT22;45733;52.668;6.860;2022-09-09T16:03:37;18.90;99.90
59857;DHT22;45733;52.668;6.860;2022-09-09T16:06:04;19.00;99.90
59857;DHT22;45733;52.668;6.860;2022-09-09T16:08:39;18.90;99.90
59857;DHT22;45733;52.668;6.860;2022-09-09T16:11:06;18.90;99.90
59857;DHT22;45733;52.668;6.860;2022-09-09T16:13:39;18.90;99.90
59857;DHT22;45733;52.668;6.860;2022-09-09T16:16:06;18.90;99.90
59857;DHT22;45733;52.668;6.860;2022-09-09T16:18:43;18.90;99.90
59857;DHT22;45733;52.668;6.860;2022-09-09T16:21:31;18.80;99.90
59857;DHT22;45733;52.668;6.860;2022-09-09T16:23:59;18.90;99.90
59857;DHT22;45733;52.668;6.860;2022-09-09T16:26:26;19.00;99.90
59857;DHT22;45733;52.668;6.860;2022-09-09T16:28:53;19.10;99.90
59857;DHT22;45733;52.668;6.860;2022-09-09T16:31:22;19.20;99.90
59857;DHT22;45733;52.668;6.860;2022-09-09T16:33:48;19.20;99.90
59857;DHT22;45733;52.668;6.860;2022-09-09T16:36:27;19.20;99.90
59857;DHT22;45733;52.668;6.860;2022-09-09T16:38:53;19.20;99.90
59857;DHT22;45733;52.668;6.860;2022-09-09T16:41:21;19.20;99.90
59857;DHT22;45733;52.668;6.860;2022-09-09T16:43:47;19.10;99.90
59857;DHT22;45733;52.668;6.860;2022-09-09T16:46:18;19.10;99.90
59857;DHT22;45733;52.668;6.860;2022-09-09T16:48:46;19.00;99.90
59857;DHT22;45733;52.668;6.860;2022-09-09T16:51:15;19.00;99.90
59857;DHT22;45733;52.668;6.860;2022-09-09T16:53:42;18.90;99.90
59857;DHT22;45733;52.668;6.860;2022-09-09T16:56:14;18.90;99.90
59857;DHT22;45733;52.668;6.860;2022-09-09T16:58:40;18.80;99.90
59857;DHT22;45733;52.668;6.860;2022-09-09T17:01:09;18.70;99.90
59857;DHT22;45733;52.668;6.860;2022-09-09T17:03:35;18.80;99.90
59857;DHT22;45733;52.668;6.860;2022-09-09T17:06:03;18.70;99.90
59857;DHT22;45733;52.668;6.860;2022-09-09T17:08:33;18.70;99.90
59857;DHT22;45733;52.668;6.860;2022-09-09T17:10:59;18.60;99.90
59857;DHT22;45733;52.668;6.860;2022-09-09T17:13:25;18.60;99.90
59857;DHT22;45733;52.668;6.860;2022-09-09T17:15:51;18.60;99.90
59857;DHT22;45733;52.668;6.860;2022-09-09T17:18:17;18.60;99.90
59857;DHT22;45733;52.668;6.860;2022-09-09T17:20:44;18.50;99.90
59857;DHT22;45733;52.668;6.860;2022-09-09T17:23:11;18.50;99.90
59857;DHT22;45733;52.668;6.860;2022-09-09T17:25:41;18.50;99.90
59857;DHT22;45733;52.668;6.860;2022-09-09T17:28:06;18.50;99.90
59857;DHT22;45733;52.668;6.860;2022-09-09T17:30:36;18.50;99.90
59857;DHT22;45733;52.668;6.860;2022-09-09T17:33:03;18.50;99.90
59857;DHT22;45733;52.668;6.860;2022-09-09T17:35:30;18.40;99.90
59857;DHT22;45733;52.668;6.860;2022-09-09T17:37:56;18.30;99.90
59857;DHT22;45733;52.668;6.860;2022-09-09T17:40:22;18.20;99.90
59857;DHT22;45733;52.668;6.860;2022-09-09T17:42:48;18.20;99.90
59857;DHT22;45733;52.668;6.860;2022-09-09T17:45:14;18.10;99.90
59857;DHT22;45733;52.668;6.860;2022-09-09T17:47:41;18.00;99.90
59857;DHT22;45733;52.668;6.860;2022-09-09T17:50:09;18.00;99.90
59857;DHT22;45733;52.668;6.860;2022-09-09T17:52:38;18.00;99.90
59857;DHT22;45733;52.668;6.860;2022-09-09T17:55:05;17.90;99.90
59857;DHT22;45733;52.668;6.860;2022-09-09T17:57:31;18.00;99.90
59857;DHT22;45733;52.668;6.860;2022-09-09T17:59:57;18.00;99.90
59857;DHT22;45733;52.668;6.860;2022-09-09T18:02:23;18.00;99.90
59857;DHT22;45733;52.668;6.860;2022-09-09T18:04:48;18.00;99.90
59857;DHT22;45733;52.668;6.860;2022-09-09T18:07:14;18.00;99.90
59857;DHT22;45733;52.668;6.860;2022-09-09T18:09:40;17.90;99.90
59857;DHT22;45733;52.668;6.860;2022-09-09T18:12:07;18.00;99.90
59857;DHT22;45733;52.668;6.860;2022-09-09T18:14:33;17.90;99.90
59857;DHT22;45733;52.668;6.860;2022-09-09T18:17:00;17.90;99.90
59857;DHT22;45733;52.668;6.860;2022-09-09T18:19:28;17.90;99.90